PWSweather.com
Personal Weather Stations
Station Observations
WAREHAM1
West Wareham, MA 02576

West Wareham, MA 02576

Lat: 41.7961059, Lon: -70.775612

Elevation: 88

Station Type: Davis Vantage Vue

http://www.gateway2capecod.com

High Low Average
Temperature 90.9°F32.7°F 62.8°F17.1°F 76.5°F24.7°F
Dew Point 70.2°F21.2°F 61.0°F16.1°F 65.4°F18.6°F
Winds 4.0 mph S6.4 mph S Calm Calm 0.9 mph 1.4 mph
Wind Gusts 10.1 mph16.3 mph -- 2.7 mph4.3 mph
Humidity 96% 40% 71%
Pressure 29.83 in1010.20 in 29.72 in1006.40 in -
Precipitation 0.00 in0.00 in - -
Hour Temp Dew Point Humidity Winds Wind Gusts Pressure Precip Precip Rate Daily Precip Total
12:00 AM 68.5°F20.3°C 63.9°F17.7°C 85% Calm Calm -- 29.82 in1009.8 mb 0.00 in0.0 mm 0.00 in0.0 mm 0.00 in0.0 mm
12:10 AM 68.4°F20.2°C 63.7°F17.6°C 85% Calm Calm -- 29.82 in1009.8 mb 0.00 in0.0 mm 0.00 in0.0 mm 0.00 in0.0 mm
12:20 AM 67.8°F19.9°C 63.1°F17.3°C 85% Calm Calm -- 29.83 in1010.2 mb 0.00 in0.0 mm 0.00 in0.0 mm 0.00 in0.0 mm
12:30 AM 67.1°F19.5°C 62.8°F17.1°C 86% Calm Calm -- 29.82 in1009.8 mb 0.00 in0.0 mm 0.00 in0.0 mm 0.00 in0.0 mm
12:40 AM 66.6°F19.2°C 62.6°F17.0°C 87% Calm Calm -- 29.82 in1009.8 mb 0.00 in0.0 mm 0.00 in0.0 mm 0.00 in0.0 mm
12:51 AM 66.0°F18.9°C 62.4°F16.9°C 88% Calm Calm -- 29.82 in1009.8 mb 0.00 in0.0 mm 0.00 in0.0 mm 0.00 in0.0 mm
01:01 AM 65.7°F18.7°C 62.2°F16.8°C 89% Calm Calm -- 29.82 in1009.8 mb 0.00 in0.0 mm 0.00 in0.0 mm 0.00 in0.0 mm
01:11 AM 65.7°F18.7°C 63.0°F17.2°C 91% Calm Calm -- 29.82 in1009.8 mb 0.00 in0.0 mm 0.00 in0.0 mm 0.00 in0.0 mm
01:21 AM 65.7°F18.7°C 63.0°F17.2°C 91% Calm Calm -- 29.81 in1009.5 mb 0.00 in0.0 mm 0.00 in0.0 mm 0.00 in0.0 mm
01:31 AM 65.3°F18.5°C 62.6°F17.0°C 91% Calm Calm -- 29.81 in1009.5 mb 0.00 in0.0 mm 0.00 in0.0 mm 0.00 in0.0 mm
01:41 AM 65.3°F18.5°C 62.6°F17.0°C 91% Calm Calm -- 29.80 in1009.1 mb 0.00 in0.0 mm 0.00 in0.0 mm 0.00 in0.0 mm
01:51 AM 64.9°F18.3°C 62.2°F16.8°C 91% Calm Calm -- 29.80 in1009.1 mb 0.00 in0.0 mm 0.00 in0.0 mm 0.00 in0.0 mm
02:01 AM 64.8°F18.2°C 62.1°F16.7°C 91% Calm Calm -- 29.80 in1009.1 mb 0.00 in0.0 mm 0.00 in0.0 mm 0.00 in0.0 mm
02:11 AM 64.2°F17.9°C 61.9°F16.6°C 92% Calm Calm -- 29.80 in1009.1 mb 0.00 in0.0 mm 0.00 in0.0 mm 0.00 in0.0 mm
02:21 AM 64.2°F17.9°C 61.9°F16.6°C 92% Calm Calm -- 29.80 in1009.1 mb 0.00 in0.0 mm 0.00 in0.0 mm 0.00 in0.0 mm
02:31 AM 63.9°F17.7°C 61.5°F16.4°C 92% Calm Calm 0.9 mph1.4 kmh 29.80 in1009.1 mb 0.00 in0.0 mm 0.00 in0.0 mm 0.00 in0.0 mm
02:41 AM 63.9°F17.7°C 61.9°F16.6°C 93% Calm Calm -- 29.80 in1009.1 mb 0.00 in0.0 mm 0.00 in0.0 mm 0.00 in0.0 mm
02:51 AM 63.7°F17.6°C 61.7°F16.5°C 93% Calm Calm -- 29.80 in1009.1 mb 0.00 in0.0 mm 0.00 in0.0 mm 0.00 in0.0 mm
03:01 AM 63.7°F17.6°C 61.7°F16.5°C 93% Calm Calm -- 29.80 in1009.1 mb 0.00 in0.0 mm 0.00 in0.0 mm 0.00 in0.0 mm
03:11 AM 63.7°F17.6°C 61.7°F16.5°C 93% Calm Calm -- 29.79 in1008.8 mb 0.00 in0.0 mm 0.00 in0.0 mm 0.00 in0.0 mm
03:21 AM 63.1°F17.3°C 61.2°F16.2°C 93% Calm Calm -- 29.79 in1008.8 mb 0.00 in0.0 mm 0.00 in0.0 mm 0.00 in0.0 mm
03:31 AM 63.0°F17.2°C 61.0°F16.1°C 93% Calm Calm -- 29.79 in1008.8 mb 0.00 in0.0 mm 0.00 in0.0 mm 0.00 in0.0 mm
03:41 AM 63.0°F17.2°C 61.2°F16.2°C 94% Calm Calm -- 29.79 in1008.8 mb 0.00 in0.0 mm 0.00 in0.0 mm 0.00 in0.0 mm
03:51 AM 63.1°F17.3°C 61.3°F16.3°C 94% Calm Calm -- 29.78 in1008.5 mb 0.00 in0.0 mm 0.00 in0.0 mm 0.00 in0.0 mm
04:01 AM 62.8°F17.1°C 61.0°F16.1°C 94% Calm Calm -- 29.78 in1008.5 mb 0.00 in0.0 mm 0.00 in0.0 mm 0.00 in0.0 mm
04:11 AM 62.8°F17.1°C 61.0°F16.1°C 94% Calm Calm -- 29.78 in1008.5 mb 0.00 in0.0 mm 0.00 in0.0 mm 0.00 in0.0 mm
04:21 AM 62.8°F17.1°C 61.3°F16.3°C 95% Calm Calm 1.0 mph1.6 kmh 29.78 in1008.5 mb 0.00 in0.0 mm 0.00 in0.0 mm 0.00 in0.0 mm
04:31 AM 63.0°F17.2°C 61.5°F16.4°C 95% Calm Calm -- 29.78 in1008.5 mb 0.00 in0.0 mm 0.00 in0.0 mm 0.00 in0.0 mm
04:41 AM 63.1°F17.3°C 61.7°F16.5°C 95% Calm Calm -- 29.78 in1008.5 mb 0.00 in0.0 mm 0.00 in0.0 mm 0.00 in0.0 mm
04:51 AM 63.0°F17.2°C 61.5°F16.4°C 95% Calm Calm -- 29.78 in1008.5 mb 0.00 in0.0 mm 0.00 in0.0 mm 0.00 in0.0 mm
05:01 AM 63.0°F17.2°C 61.5°F16.4°C 95% Calm Calm -- 29.77 in1008.1 mb 0.00 in0.0 mm 0.00 in0.0 mm 0.00 in0.0 mm
05:11 AM 63.1°F17.3°C 61.7°F16.5°C 95% Calm Calm -- 29.77 in1008.1 mb 0.00 in0.0 mm 0.00 in0.0 mm 0.00 in0.0 mm
05:21 AM 63.1°F17.3°C 61.7°F16.5°C 95% Calm Calm -- 29.77 in1008.1 mb 0.00 in0.0 mm 0.00 in0.0 mm 0.00 in0.0 mm
05:31 AM 63.1°F17.3°C 61.7°F16.5°C 95% Calm Calm -- 29.77 in1008.1 mb 0.00 in0.0 mm 0.00 in0.0 mm 0.00 in0.0 mm
05:41 AM 63.3°F17.4°C 61.9°F16.6°C 95% Calm Calm -- 29.77 in1008.1 mb 0.00 in0.0 mm 0.00 in0.0 mm 0.00 in0.0 mm
05:51 AM 63.1°F17.3°C 61.7°F16.5°C 95% Calm Calm -- 29.77 in1008.1 mb 0.00 in0.0 mm 0.00 in0.0 mm 0.00 in0.0 mm
06:01 AM 63.1°F17.3°C 61.7°F16.5°C 95% Calm Calm -- 29.78 in1008.5 mb 0.00 in0.0 mm 0.00 in0.0 mm 0.00 in0.0 mm
06:11 AM 63.1°F17.3°C 61.7°F16.5°C 95% Calm Calm -- 29.78 in1008.5 mb 0.00 in0.0 mm 0.00 in0.0 mm 0.00 in0.0 mm
06:21 AM 63.3°F17.4°C 61.9°F16.6°C 95% Calm Calm -- 29.78 in1008.5 mb 0.00 in0.0 mm 0.00 in0.0 mm 0.00 in0.0 mm
06:31 AM 64.8°F18.2°C 63.7°F17.6°C 96% Calm Calm -- 29.78 in1008.5 mb 0.00 in0.0 mm 0.00 in0.0 mm 0.00 in0.0 mm
06:41 AM 66.0°F18.9°C 64.8°F18.2°C 96% Calm Calm -- 29.78 in1008.5 mb 0.00 in0.0 mm 0.00 in0.0 mm 0.00 in0.0 mm
06:51 AM 66.7°F19.3°C 65.3°F18.5°C 95% Calm Calm -- 29.78 in1008.5 mb 0.00 in0.0 mm 0.00 in0.0 mm 0.00 in0.0 mm
07:01 AM 67.5°F19.7°C 66.0°F18.9°C 95% Calm Calm -- 29.78 in1008.5 mb 0.00 in0.0 mm 0.00 in0.0 mm 0.00 in0.0 mm
07:11 AM 68.0°F20.0°C 65.8°F18.8°C 93% Calm Calm -- 29.78 in1008.5 mb 0.00 in0.0 mm 0.00 in0.0 mm 0.00 in0.0 mm
07:21 AM 68.9°F20.5°C 66.6°F19.2°C 92% Calm Calm -- 29.78 in1008.5 mb 0.00 in0.0 mm 0.00 in0.0 mm 0.00 in0.0 mm
07:31 AM 70.3°F21.3°C 66.6°F19.2°C 88% Calm Calm 2.0 mph3.2 kmh 29.78 in1008.5 mb 0.00 in0.0 mm 0.00 in0.0 mm 0.00 in0.0 mm
07:41 AM 72.0°F22.2°C 66.6°F19.2°C 83% Calm Calm 0.9 mph1.4 kmh 29.78 in1008.5 mb 0.00 in0.0 mm 0.00 in0.0 mm 0.00 in0.0 mm
07:51 AM 73.2°F22.9°C 66.4°F19.1°C 79% Calm Calm 0.9 mph1.4 kmh 29.78 in1008.5 mb 0.00 in0.0 mm 0.00 in0.0 mm 0.00 in0.0 mm
08:01 AM 74.1°F23.4°C 66.4°F19.1°C 77% Calm Calm 2.0 mph3.2 kmh 29.78 in1008.5 mb 0.00 in0.0 mm 0.00 in0.0 mm 0.00 in0.0 mm
08:11 AM 75.0°F23.9°C 66.2°F19.0°C 74% Calm Calm 2.0 mph3.2 kmh 29.78 in1008.5 mb 0.00 in0.0 mm 0.00 in0.0 mm 0.00 in0.0 mm
08:21 AM 76.1°F24.5°C 66.7°F19.3°C 73% 0.9 mph SSW1.4 kmh SSW 3.0 mph4.8 kmh 29.78 in1008.5 mb 0.00 in0.0 mm 0.00 in0.0 mm 0.00 in0.0 mm
08:31 AM 77.2°F25.1°C 67.1°F19.5°C 71% 0.9 mph S1.4 kmh S 2.0 mph3.2 kmh 29.78 in1008.5 mb 0.00 in0.0 mm 0.00 in0.0 mm 0.00 in0.0 mm
08:41 AM 77.7°F25.4°C 67.6°F19.8°C 71% 0.9 mph SW1.4 kmh SW 2.9 mph4.7 kmh 29.77 in1008.1 mb 0.00 in0.0 mm 0.00 in0.0 mm 0.00 in0.0 mm
08:51 AM 78.3°F25.7°C 68.0°F20.0°C 71% Calm Calm 2.0 mph3.2 kmh 29.77 in1008.1 mb 0.00 in0.0 mm 0.00 in0.0 mm 0.00 in0.0 mm
09:01 AM 78.1°F25.6°C 67.8°F19.9°C 71% Calm Calm 0.9 mph1.4 kmh 29.77 in1008.1 mb 0.00 in0.0 mm 0.00 in0.0 mm 0.00 in0.0 mm
09:11 AM 79.2°F26.2°C 68.5°F20.3°C 70% Calm Calm 3.0 mph4.8 kmh 29.77 in1008.1 mb 0.00 in0.0 mm 0.00 in0.0 mm 0.00 in0.0 mm
09:21 AM 80.2°F26.8°C 67.8°F19.9°C 66% 0.9 mph SW1.4 kmh SW 5.0 mph8.0 kmh 29.77 in1008.1 mb 0.00 in0.0 mm 0.00 in0.0 mm 0.00 in0.0 mm
09:31 AM 81.1°F27.3°C 68.2°F20.1°C 65% 0.9 mph SSW1.4 kmh SSW 2.9 mph4.7 kmh 29.77 in1008.1 mb 0.00 in0.0 mm 0.00 in0.0 mm 0.00 in0.0 mm
09:41 AM 81.9°F27.7°C 67.6°F19.8°C 62% 0.9 mph S1.4 kmh S 6.0 mph9.7 kmh 29.77 in1008.1 mb 0.00 in0.0 mm 0.00 in0.0 mm 0.00 in0.0 mm
09:51 AM 82.9°F28.3°C 68.2°F20.1°C 61% 2.0 mph WSW3.2 kmh WSW 6.0 mph9.7 kmh 29.77 in1008.1 mb 0.00 in0.0 mm 0.00 in0.0 mm 0.00 in0.0 mm
10:01 AM 83.5°F28.6°C 68.2°F20.1°C 60% 2.0 mph S3.2 kmh S 6.0 mph9.7 kmh 29.78 in1008.5 mb 0.00 in0.0 mm 0.00 in0.0 mm 0.00 in0.0 mm
10:11 AM 84.6°F29.2°C 68.7°F20.4°C 59% 2.0 mph S3.2 kmh S 4.0 mph6.4 kmh 29.77 in1008.1 mb 0.00 in0.0 mm 0.00 in0.0 mm 0.00 in0.0 mm
10:21 AM 85.1°F29.5°C 68.2°F20.1°C 57% 2.0 mph SW3.2 kmh SW 4.0 mph6.4 kmh 29.77 in1008.1 mb 0.00 in0.0 mm 0.00 in0.0 mm 0.00 in0.0 mm
10:31 AM 86.0°F30.0°C 69.4°F20.8°C 58% 0.9 mph SSW1.4 kmh SSW 4.0 mph6.4 kmh 29.77 in1008.1 mb 0.00 in0.0 mm 0.00 in0.0 mm 0.00 in0.0 mm
10:41 AM 86.7°F30.4°C 67.5°F19.7°C 53% 2.0 mph S3.2 kmh S 6.0 mph9.7 kmh 29.77 in1008.1 mb 0.00 in0.0 mm 0.00 in0.0 mm 0.00 in0.0 mm
10:51 AM 87.6°F30.9°C 67.8°F19.9°C 52% 2.0 mph W3.2 kmh W 4.9 mph7.9 kmh 29.77 in1008.1 mb 0.00 in0.0 mm 0.00 in0.0 mm 0.00 in0.0 mm
11:01 AM 88.2°F31.2°C 68.4°F20.2°C 52% 2.0 mph SW3.2 kmh SW 6.0 mph9.7 kmh 29.77 in1008.1 mb 0.00 in0.0 mm 0.00 in0.0 mm 0.00 in0.0 mm
11:11 AM 88.9°F31.6°C 67.8°F19.9°C 50% 2.0 mph WSW3.2 kmh WSW 4.9 mph7.9 kmh 29.77 in1008.1 mb 0.00 in0.0 mm 0.00 in0.0 mm 0.00 in0.0 mm
11:21 AM 89.1°F31.7°C 68.0°F20.0°C 50% 2.9 mph WSW4.7 kmh WSW 6.0 mph9.7 kmh 29.77 in1008.1 mb 0.00 in0.0 mm 0.00 in0.0 mm 0.00 in0.0 mm
11:31 AM 88.9°F31.6°C 67.8°F19.9°C 50% 2.0 mph SW3.2 kmh SW 4.9 mph7.9 kmh 29.77 in1008.1 mb 0.00 in0.0 mm 0.00 in0.0 mm 0.00 in0.0 mm
11:41 AM 89.8°F32.1°C 65.7°F18.7°C 45% 2.0 mph S3.2 kmh S 6.0 mph9.7 kmh 29.76 in1007.8 mb 0.00 in0.0 mm 0.00 in0.0 mm 0.00 in0.0 mm
11:51 AM 89.1°F31.7°C 65.7°F18.7°C 46% 2.9 mph SSW4.7 kmh SSW 9.0 mph14.5 kmh 29.76 in1007.8 mb 0.00 in0.0 mm 0.00 in0.0 mm 0.00 in0.0 mm
12:01 PM 88.9°F31.6°C 64.8°F18.2°C 45% 2.0 mph SW3.2 kmh SW 10.0 mph16.1 kmh 29.76 in1007.8 mb 0.00 in0.0 mm 0.00 in0.0 mm 0.00 in0.0 mm
12:11 PM 90.0°F32.2°C 65.1°F18.4°C 44% 2.0 mph WSW3.2 kmh WSW 6.0 mph9.7 kmh 29.76 in1007.8 mb 0.00 in0.0 mm 0.00 in0.0 mm 0.00 in0.0 mm
12:21 PM 90.9°F32.7°C 63.1°F17.3°C 40% 2.0 mph WSW3.2 kmh WSW 6.0 mph9.7 kmh 29.76 in1007.8 mb 0.00 in0.0 mm 0.00 in0.0 mm 0.00 in0.0 mm
12:31 PM 90.1°F32.3°C 63.3°F17.4°C 41% 2.9 mph SW4.7 kmh SW 6.9 mph11.1 kmh 29.76 in1007.8 mb 0.00 in0.0 mm 0.00 in0.0 mm 0.00 in0.0 mm
12:41 PM 90.3°F32.4°C 64.0°F17.8°C 42% 2.0 mph S3.2 kmh S 7.0 mph11.3 kmh 29.75 in1007.5 mb 0.00 in0.0 mm 0.00 in0.0 mm 0.00 in0.0 mm
12:51 PM 90.1°F32.3°C 64.6°F18.1°C 43% 2.0 mph SW3.2 kmh SW 4.9 mph7.9 kmh 29.75 in1007.5 mb 0.00 in0.0 mm 0.00 in0.0 mm 0.00 in0.0 mm
01:01 PM 90.9°F32.7°C 64.6°F18.1°C 42% 0.9 mph SSW1.4 kmh SSW 6.0 mph9.7 kmh 29.75 in1007.5 mb 0.00 in0.0 mm 0.00 in0.0 mm 0.00 in0.0 mm
01:11 PM 90.9°F32.7°C 63.9°F17.7°C 41% 2.0 mph S3.2 kmh S 6.9 mph11.1 kmh 29.75 in1007.5 mb 0.00 in0.0 mm 0.00 in0.0 mm 0.00 in0.0 mm
01:21 PM 90.1°F32.3°C 70.2°F21.2°C 52% 2.0 mph S3.2 kmh S 6.0 mph9.7 kmh 29.75 in1007.5 mb 0.00 in0.0 mm 0.00 in0.0 mm 0.00 in0.0 mm
01:31 PM 89.1°F31.7°C 68.5°F20.3°C 51% 2.0 mph SSE3.2 kmh SSE 7.0 mph11.3 kmh 29.75 in1007.5 mb 0.00 in0.0 mm 0.00 in0.0 mm 0.00 in0.0 mm
01:41 PM 88.7°F31.5°C 68.2°F20.1°C 51% 4.0 mph SW6.4 kmh SW 8.1 mph13.0 kmh 29.75 in1007.5 mb 0.00 in0.0 mm 0.00 in0.0 mm 0.00 in0.0 mm
01:51 PM 89.4°F31.9°C 68.9°F20.5°C 51% 2.9 mph SSW4.7 kmh SSW 6.0 mph9.7 kmh 29.75 in1007.5 mb 0.00 in0.0 mm 0.00 in0.0 mm 0.00 in0.0 mm
02:01 PM 89.6°F32.0°C 67.3°F19.6°C 48% 2.9 mph SW4.7 kmh SW 9.0 mph14.5 kmh 29.74 in1007.1 mb 0.00 in0.0 mm 0.00 in0.0 mm 0.00 in0.0 mm
02:11 PM 89.8°F32.1°C 66.9°F19.4°C 47% 2.9 mph SW4.7 kmh SW 8.9 mph14.3 kmh 29.74 in1007.1 mb 0.00 in0.0 mm 0.00 in0.0 mm 0.00 in0.0 mm
02:21 PM 89.4°F31.9°C 67.1°F19.5°C 48% 2.9 mph SW4.7 kmh SW 6.9 mph11.1 kmh 29.74 in1007.1 mb 0.00 in0.0 mm 0.00 in0.0 mm 0.00 in0.0 mm
02:31 PM 88.5°F31.4°C 65.7°F18.7°C 47% 4.0 mph SW6.4 kmh SW 10.1 mph16.3 kmh 29.73 in1006.8 mb 0.00 in0.0 mm 0.00 in0.0 mm 0.00 in0.0 mm
02:41 PM 88.5°F31.4°C 66.4°F19.1°C 48% 4.0 mph S6.4 kmh S 8.9 mph14.3 kmh 29.73 in1006.8 mb 0.00 in0.0 mm 0.00 in0.0 mm 0.00 in0.0 mm
02:51 PM 88.5°F31.4°C 66.4°F19.1°C 48% 2.9 mph SW4.7 kmh SW 8.1 mph13.0 kmh 29.73 in1006.8 mb 0.00 in0.0 mm 0.00 in0.0 mm 0.00 in0.0 mm
03:01 PM 88.3°F31.3°C 68.5°F20.3°C 52% 2.9 mph WSW4.7 kmh WSW 7.0 mph11.3 kmh 29.74 in1007.1 mb 0.00 in0.0 mm 0.00 in0.0 mm 0.00 in0.0 mm
03:11 PM 88.0°F31.1°C 67.6°F19.8°C 51% 4.0 mph SSW6.4 kmh SSW 9.0 mph14.5 kmh 29.73 in1006.8 mb 0.00 in0.0 mm 0.00 in0.0 mm 0.00 in0.0 mm
03:21 PM 88.0°F31.1°C 68.2°F20.1°C 52% 2.9 mph SW4.7 kmh SW 6.9 mph11.1 kmh 29.73 in1006.8 mb 0.00 in0.0 mm 0.00 in0.0 mm 0.00 in0.0 mm
03:31 PM 88.2°F31.2°C 68.4°F20.2°C 52% 2.0 mph S3.2 kmh S 6.0 mph9.7 kmh 29.73 in1006.8 mb 0.00 in0.0 mm 0.00 in0.0 mm 0.00 in0.0 mm
03:41 PM 88.3°F31.3°C 69.1°F20.6°C 53% 2.0 mph SSW3.2 kmh SSW 6.0 mph9.7 kmh 29.72 in1006.4 mb 0.00 in0.0 mm 0.00 in0.0 mm 0.00 in0.0 mm
03:51 PM 88.2°F31.2°C 68.9°F20.5°C 53% 2.9 mph S4.7 kmh S 6.0 mph9.7 kmh 29.72 in1006.4 mb 0.00 in0.0 mm 0.00 in0.0 mm 0.00 in0.0 mm
04:01 PM 88.0°F31.1°C 67.6°F19.8°C 51% 2.9 mph SSW4.7 kmh SSW 6.0 mph9.7 kmh 29.72 in1006.4 mb 0.00 in0.0 mm 0.00 in0.0 mm 0.00 in0.0 mm
04:11 PM 88.7°F31.5°C 69.4°F20.8°C 53% 2.9 mph SSW4.7 kmh SSW 6.0 mph9.7 kmh 29.72 in1006.4 mb 0.00 in0.0 mm 0.00 in0.0 mm 0.00 in0.0 mm
04:21 PM 88.3°F31.3°C 68.5°F20.3°C 52% 2.9 mph S4.7 kmh S 6.0 mph9.7 kmh 29.72 in1006.4 mb 0.00 in0.0 mm 0.00 in0.0 mm 0.00 in0.0 mm
04:31 PM 88.0°F31.1°C 67.6°F19.8°C 51% 2.9 mph S4.7 kmh S 7.0 mph11.3 kmh 29.72 in1006.4 mb 0.00 in0.0 mm 0.00 in0.0 mm 0.00 in0.0 mm
04:41 PM 87.4°F30.8°C 68.2°F20.1°C 53% 2.9 mph SW4.7 kmh SW 8.1 mph13.0 kmh 29.72 in1006.4 mb 0.00 in0.0 mm 0.00 in0.0 mm 0.00 in0.0 mm
04:51 PM 86.7°F30.4°C 68.0°F20.0°C 54% 4.0 mph SSW6.4 kmh SSW 6.9 mph11.1 kmh 29.72 in1006.4 mb 0.00 in0.0 mm 0.00 in0.0 mm 0.00 in0.0 mm
05:01 PM 86.9°F30.5°C 67.6°F19.8°C 53% 2.9 mph SW4.7 kmh SW 6.0 mph9.7 kmh 29.72 in1006.4 mb 0.00 in0.0 mm 0.00 in0.0 mm 0.00 in0.0 mm
05:11 PM 86.9°F30.5°C 67.6°F19.8°C 53% 2.9 mph SW4.7 kmh SW 6.0 mph9.7 kmh 29.73 in1006.8 mb 0.00 in0.0 mm 0.00 in0.0 mm 0.00 in0.0 mm
05:21 PM 86.5°F30.3°C 68.4°F20.2°C 55% 2.9 mph SSW4.7 kmh SSW 7.0 mph11.3 kmh 29.72 in1006.4 mb 0.00 in0.0 mm 0.00 in0.0 mm 0.00 in0.0 mm
05:31 PM 85.8°F29.9°C 67.8°F19.9°C 55% 2.9 mph SW4.7 kmh SW 6.0 mph9.7 kmh 29.72 in1006.4 mb 0.00 in0.0 mm 0.00 in0.0 mm 0.00 in0.0 mm
05:41 PM 86.0°F30.0°C 68.0°F20.0°C 55% 2.0 mph W3.2 kmh W 4.9 mph7.9 kmh 29.72 in1006.4 mb 0.00 in0.0 mm 0.00 in0.0 mm 0.00 in0.0 mm
05:51 PM 84.7°F29.3°C 67.8°F19.9°C 57% 2.0 mph W3.2 kmh W 4.9 mph7.9 kmh 29.73 in1006.8 mb 0.00 in0.0 mm 0.00 in0.0 mm 0.00 in0.0 mm
06:01 PM 83.1°F28.4°C 63.7°F17.6°C 52% 2.0 mph W3.2 kmh W 9.0 mph14.5 kmh 29.74 in1007.1 mb 0.00 in0.0 mm 0.00 in0.0 mm 0.00 in0.0 mm
06:11 PM 82.0°F27.8°C 63.7°F17.6°C 54% 0.9 mph NE1.4 kmh NE 6.0 mph9.7 kmh 29.75 in1007.5 mb 0.00 in0.0 mm 0.00 in0.0 mm 0.00 in0.0 mm
06:21 PM 81.7°F27.6°C 63.9°F17.7°C 55% Calm Calm 2.0 mph3.2 kmh 29.75 in1007.5 mb 0.00 in0.0 mm 0.00 in0.0 mm 0.00 in0.0 mm
06:31 PM 81.0°F27.2°C 63.9°F17.7°C 56% 0.9 mph WSW1.4 kmh WSW 4.0 mph6.4 kmh 29.75 in1007.5 mb 0.00 in0.0 mm 0.00 in0.0 mm 0.00 in0.0 mm
06:41 PM 80.2°F26.8°C 64.0°F17.8°C 58% Calm Calm 0.9 mph1.4 kmh 29.75 in1007.5 mb 0.00 in0.0 mm 0.00 in0.0 mm 0.00 in0.0 mm
06:51 PM 79.9°F26.6°C 64.2°F17.9°C 59% Calm Calm -- 29.75 in1007.5 mb 0.00 in0.0 mm 0.00 in0.0 mm 0.00 in0.0 mm
07:01 PM 79.5°F26.4°C 64.4°F18.0°C 60% Calm Calm -- 29.76 in1007.8 mb 0.00 in0.0 mm 0.00 in0.0 mm 0.00 in0.0 mm
07:11 PM 79.2°F26.2°C 64.6°F18.1°C 61% Calm Calm -- 29.76 in1007.8 mb 0.00 in0.0 mm 0.00 in0.0 mm 0.00 in0.0 mm
07:21 PM 78.8°F26.0°C 64.8°F18.2°C 62% Calm Calm -- 29.77 in1008.1 mb 0.00 in0.0 mm 0.00 in0.0 mm 0.00 in0.0 mm
07:31 PM 78.4°F25.8°C 65.3°F18.5°C 64% Calm Calm -- 29.77 in1008.1 mb 0.00 in0.0 mm 0.00 in0.0 mm 0.00 in0.0 mm
07:41 PM 78.1°F25.6°C 65.3°F18.5°C 65% Calm Calm 0.9 mph1.4 kmh 29.78 in1008.5 mb 0.00 in0.0 mm 0.00 in0.0 mm 0.00 in0.0 mm
07:51 PM 78.1°F25.6°C 64.9°F18.3°C 64% Calm Calm -- 29.78 in1008.5 mb 0.00 in0.0 mm 0.00 in0.0 mm 0.00 in0.0 mm
08:01 PM 77.7°F25.4°C 65.5°F18.6°C 66% Calm Calm -- 29.78 in1008.5 mb 0.00 in0.0 mm 0.00 in0.0 mm 0.00 in0.0 mm
08:11 PM 77.2°F25.1°C 64.9°F18.3°C 66% Calm Calm -- 29.79 in1008.8 mb 0.00 in0.0 mm 0.00 in0.0 mm 0.00 in0.0 mm
08:21 PM 77.2°F25.1°C 64.9°F18.3°C 66% Calm Calm 1.0 mph1.6 kmh 29.79 in1008.8 mb 0.00 in0.0 mm 0.00 in0.0 mm 0.00 in0.0 mm
08:31 PM 77.2°F25.1°C 65.3°F18.5°C 67% Calm Calm 2.0 mph3.2 kmh 29.79 in1008.8 mb 0.00 in0.0 mm 0.00 in0.0 mm 0.00 in0.0 mm
08:41 PM 76.6°F24.8°C 65.7°F18.7°C 69% Calm Calm 0.9 mph1.4 kmh 29.80 in1009.1 mb 0.00 in0.0 mm 0.00 in0.0 mm 0.00 in0.0 mm
08:51 PM 75.9°F24.4°C 65.8°F18.8°C 71% Calm Calm -- 29.80 in1009.1 mb 0.00 in0.0 mm 0.00 in0.0 mm 0.00 in0.0 mm
09:01 PM 75.4°F24.1°C 66.6°F19.2°C 74% Calm Calm -- 29.80 in1009.1 mb 0.00 in0.0 mm 0.00 in0.0 mm 0.00 in0.0 mm
09:11 PM 74.8°F23.8°C 66.7°F19.3°C 76% Calm Calm -- 29.81 in1009.5 mb 0.00 in0.0 mm 0.00 in0.0 mm 0.00 in0.0 mm
09:21 PM 74.3°F23.5°C 67.3°F19.6°C 79% Calm Calm -- 29.81 in1009.5 mb 0.00 in0.0 mm 0.00 in0.0 mm 0.00 in0.0 mm
09:31 PM 73.8°F23.2°C 67.3°F19.6°C 80% Calm Calm -- 29.81 in1009.5 mb 0.00 in0.0 mm 0.00 in0.0 mm 0.00 in0.0 mm
09:41 PM 73.2°F22.9°C 67.1°F19.5°C 81% Calm Calm -- 29.82 in1009.8 mb 0.00 in0.0 mm 0.00 in0.0 mm 0.00 in0.0 mm
09:51 PM 72.9°F22.7°C 67.1°F19.5°C 82% Calm Calm -- 29.82 in1009.8 mb 0.00 in0.0 mm 0.00 in0.0 mm 0.00 in0.0 mm
10:01 PM 72.3°F22.4°C 66.9°F19.4°C 83% Calm Calm -- 29.82 in1009.8 mb 0.00 in0.0 mm 0.00 in0.0 mm 0.00 in0.0 mm
10:11 PM 72.0°F22.2°C 66.6°F19.2°C 83% Calm Calm -- 29.82 in1009.8 mb 0.00 in0.0 mm 0.00 in0.0 mm 0.00 in0.0 mm
10:21 PM 71.8°F22.1°C 66.7°F19.3°C 84% Calm Calm -- 29.82 in1009.8 mb 0.00 in0.0 mm 0.00 in0.0 mm 0.00 in0.0 mm
10:31 PM 71.4°F21.9°C 66.4°F19.1°C 84% Calm Calm -- 29.82 in1009.8 mb 0.00 in0.0 mm 0.00 in0.0 mm 0.00 in0.0 mm
10:41 PM 71.2°F21.8°C 66.6°F19.2°C 85% Calm Calm -- 29.82 in1009.8 mb 0.00 in0.0 mm 0.00 in0.0 mm 0.00 in0.0 mm
10:51 PM 70.7°F21.5°C 66.0°F18.9°C 85% Calm Calm -- 29.82 in1009.8 mb 0.00 in0.0 mm 0.00 in0.0 mm 0.00 in0.0 mm
11:01 PM 70.5°F21.4°C 66.4°F19.1°C 87% Calm Calm -- 29.82 in1009.8 mb 0.00 in0.0 mm 0.00 in0.0 mm 0.00 in0.0 mm
11:11 PM 70.5°F21.4°C 66.4°F19.1°C 87% Calm Calm -- 29.82 in1009.8 mb 0.00 in0.0 mm 0.00 in0.0 mm 0.00 in0.0 mm
11:21 PM 70.3°F21.3°C 66.2°F19.0°C 87% Calm Calm -- 29.83 in1010.2 mb 0.00 in0.0 mm 0.00 in0.0 mm 0.00 in0.0 mm
11:31 PM 70.2°F21.2°C 66.0°F18.9°C 87% Calm Calm -- 29.83 in1010.2 mb 0.00 in0.0 mm 0.00 in0.0 mm 0.00 in0.0 mm
11:41 PM 70.0°F21.1°C 66.2°F19.0°C 88% Calm Calm -- 29.83 in1010.2 mb 0.00 in0.0 mm 0.00 in0.0 mm 0.00 in0.0 mm
11:51 PM 69.8°F21.0°C 66.0°F18.9°C 88% Calm Calm -- 29.83 in1010.2 mb 0.00 in0.0 mm 0.00 in0.0 mm 0.00 in0.0 mm